Time;durP1;ratioP1;P1;durP2;ratioP2;P2;SDS_P1;SDS_P2;PMS_P1;PMS_P2;Temp;Humidity;BMP_temperature;BMP_pressure;BME280_temperature;BME280_humidity;BME280_pressure;Samples;Min_cycle;Max_cycle;Signal;HPM_P1;HPM_P2
2022/04/17 00:01:36;;;;;;;;;;;;;;;6.42;50.73;93597.63;2055007;69;20137;-69
2022/04/17 00:04:02;;;;;;;;;;;;;;;6.60;51.35;93592.94;2068539;69;20521;-69
2022/04/17 00:06:27;;;;;;;;;;;;;;;6.46;51.58;93594.44;2067625;69;20090;-69
2022/04/17 00:08:53;;;;;;;;;;;;;;;6.34;52.03;93594.09;2055216;70;20542;-67
2022/04/17 00:11:19;;;;;;;;;;;;;;;6.29;51.79;93595.03;2054857;70;20433;-67
2022/04/17 00:13:44;;;;;;;;;;;;;;;6.28;52.15;93593.56;2067635;69;20070;-67
2022/04/17 00:16:10;;;;;;;;;;;;;;;6.52;49.78;93581.75;2068235;69;20046;-68
2022/04/17 00:18:36;;;;;;;;;;;;;;;6.41;50.98;93587.00;2054821;70;20562;-69
2022/04/17 00:21:03;;;;;;;;;;;;;;;6.32;51.48;93591.09;2054743;69;20058;-68
2022/04/17 00:23:28;;;;;;;;;;;;;;;5.92;54.08;93593.78;2054690;69;20066;-68
2022/04/17 00:25:53;;;;;;;;;;;;;;;6.27;50.53;93583.66;2054250;69;20050;-68
2022/04/17 00:28:19;;;;;;;;;;;;;;;6.18;52.39;93587.78;2054816;70;20050;-68
2022/04/17 00:30:44;;;;;;;;;;;;;;;6.11;52.86;93592.06;2064753;69;20093;-68
2022/04/17 00:33:11;;;;;;;;;;;;;;;6.20;52.43;93596.34;2067825;69;20425;-68
2022/04/17 00:35:38;;;;;;;;;;;;;;;6.26;52.52;93587.78;2054962;69;20043;-68
2022/04/17 00:38:04;;;;;;;;;;;;;;;6.28;51.94;93585.16;2054569;69;20069;-68
2022/04/17 00:40:30;;;;;;;;;;;;;;;6.12;53.35;93581.63;2068123;69;20051;-68
2022/04/17 00:42:58;;;;;;;;;;;;;;;6.10;52.91;93582.22;2054676;70;20046;-68
2022/04/17 00:45:23;;;;;;;;;;;;;;;6.31;52.48;93586.81;2054817;70;20047;-68
2022/04/17 00:47:49;;;;;;;;;;;;;;;6.11;53.60;93588.53;2067589;69;20057;-68
2022/04/17 00:50:14;;;;;;;;;;;;;;;6.00;54.38;93586.88;2067656;69;20058;-69
2022/04/17 00:52:40;;;;;;;;;;;;;;;5.96;53.31;93583.72;2054966;70;20538;-69
2022/04/17 00:55:07;;;;;;;;;;;;;;;6.26;52.25;93579.38;2054278;70;20494;-68
2022/04/17 00:57:33;;;;;;;;;;;;;;;6.10;53.89;93582.22;2054776;70;20158;-68
2022/04/17 00:59:59;;;;;;;;;;;;;;;6.07;53.57;93574.94;2054578;70;20062;-69
2022/04/17 01:02:24;;;;;;;;;;;;;;;5.99;54.48;93565.81;2054309;69;20058;-68
2022/04/17 01:04:50;;;;;;;;;;;;;;;5.97;54.15;93568.41;2054480;69;20437;-69
2022/04/17 01:07:15;;;;;;;;;;;;;;;5.93;55.43;93559.66;2054446;70;20512;-68
2022/04/17 01:09:42;;;;;;;;;;;;;;;6.04;54.75;93561.31;2054694;70;20058;-68
2022/04/17 01:12:09;;;;;;;;;;;;;;;6.14;53.84;93561.50;2067289;69;20053;-68
2022/04/17 01:14:36;;;;;;;;;;;;;;;6.42;51.20;93552.13;2054706;69;20069;-69
2022/04/17 01:17:02;;;;;;;;;;;;;;;6.21;53.83;93564.28;2055151;70;20053;-68
2022/04/17 01:19:32;;;;;;;;;;;;;;;6.29;54.04;93562.22;2054959;69;20074;-68
2022/04/17 01:21:57;;;;;;;;;;;;;;;6.31;53.20;93553.28;2054995;69;20081;-69
2022/04/17 01:27:07;;;;;;;;;;;;;;;6.47;52.33;93554.00;2054859;70;20127;-69
2022/04/17 01:29:37;;;;;;;;;;;;;;;6.42;52.96;93554.94;2055324;70;20149;-69
2022/04/17 01:32:04;;;;;;;;;;;;;;;6.43;53.51;93559.22;2055002;70;20150;-69
2022/04/17 01:34:29;;;;;;;;;;;;;;;6.30;54.35;93558.13;2054846;69;20168;-70
2022/04/17 01:36:55;;;;;;;;;;;;;;;6.24;54.36;93549.19;2054329;70;20514;-70
2022/04/17 01:39:21;;;;;;;;;;;;;;;6.16;55.03;93551.25;2054487;70;20058;-69
2022/04/17 01:41:48;;;;;;;;;;;;;;;6.25;55.51;93545.09;2055128;70;20061;-69
2022/04/17 01:44:16;;;;;;;;;;;;;;;6.32;55.11;93544.34;2055041;69;20131;-69
2022/04/17 01:46:41;;;;;;;;;;;;;;;6.34;53.37;93538.91;2068104;69;20065;-69
2022/04/17 01:49:07;;;;;;;;;;;;;;;6.04;56.09;93538.97;2054681;70;20485;-69
2022/04/17 01:51:39;;;;;;;;;;;;;;;6.04;55.70;93533.38;2068188;69;20470;-69
2022/04/17 01:54:08;;;;;;;;;;;;;;;6.24;54.07;93532.41;2055100;70;20582;-69
2022/04/17 01:56:34;;;;;;;;;;;;;;;6.20;55.48;93542.50;2055676;70;20110;-69
2022/04/17 01:59:01;;;;;;;;;;;;;;;6.19;55.04;93532.63;2055428;69;20055;-69
2022/04/17 02:01:26;;;;;;;;;;;;;;;6.25;54.11;93533.91;2055627;69;20050;-69
2022/04/17 02:03:52;;;;;;;;;;;;;;;6.26;55.39;93534.63;2055712;70;20505;-69
2022/04/17 02:06:17;;;;;;;;;;;;;;;6.27;55.13;93531.28;2055684;70;20165;-69
2022/04/17 02:08:44;;;;;;;;;;;;;;;6.27;55.29;93533.31;2055673;70;20052;-69
2022/04/17 02:11:10;;;;;;;;;;;;;;;6.16;53.93;93523.28;2054911;70;20094;-69
2022/04/17 02:13:36;;;;;;;;;;;;;;;6.29;55.33;93517.47;2054724;70;20076;-69
2022/04/17 02:16:02;;;;;;;;;;;;;;;6.24;55.38;93518.44;2054823;70;20084;-69
2022/04/17 02:18:28;;;;;;;;;;;;;;;6.36;54.82;93527.88;2054935;70;20085;-69
2022/04/17 02:20:53;;;;;;;;;;;;;;;6.50;54.11;93519.28;2054970;70;20058;-69
2022/04/17 02:23:19;;;;;;;;;;;;;;;6.36;54.45;93522.28;2052464;69;20131;-69
2022/04/17 02:25:44;;;;;;;;;;;;;;;6.28;54.54;93510.41;2051631;69;20153;-71
2022/04/17 02:28:10;;;;;;;;;;;;;;;6.29;53.77;93516.75;2051580;70;20503;-69
2022/04/17 02:30:36;;;;;;;;;;;;;;;6.32;54.19;93512.81;2064344;69;20502;-68
2022/04/17 02:33:01;;;;;;;;;;;;;;;6.14;54.79;93505.56;2051430;70;20073;-69
2022/04/17 02:35:27;;;;;;;;;;;;;;;5.87;56.04;93508.78;2051606;70;20087;-69
2022/04/17 02:37:52;;;;;;;;;;;;;;;5.85;56.00;93506.53;2051410;70;20063;-69
2022/04/17 02:40:18;;;;;;;;;;;;;;;5.90;55.84;93513.25;2051682;70;20263;-69
2022/04/17 02:42:43;;;;;;;;;;;;;;;5.82;55.98;93507.69;2051867;70;20391;-69
2022/04/17 02:45:09;;;;;;;;;;;;;;;5.83;55.18;93505.63;2054335;69;20105;-69
2022/04/17 02:47:43;;;;;;;;;;;;;;;5.71;56.24;93510.09;2055192;70;20058;-69
2022/04/17 02:50:10;;;;;;;;;;;;;;;5.80;56.09;93499.09;2055549;70;20066;-69
2022/04/17 02:52:36;;;;;;;;;;;;;;;5.69;55.48;93490.38;2055557;70;20046;-69
2022/04/17 02:55:01;;;;;;;;;;;;;;;5.82;53.18;93496.50;2055462;69;20429;-69
2022/04/17 02:57:27;;;;;;;;;;;;;;;5.55;55.89;93496.16;2055695;69;20145;-69
2022/04/17 02:59:53;;;;;;;;;;;;;;;5.40;56.56;93493.34;2055653;70;20070;-69
2022/04/17 03:07:46;;;;;;;;;;;;;;;5.47;55.87;93495.41;2055839;70;20054;-70
2022/04/17 03:10:12;;;;;;;;;;;;;;;5.34;56.76;93495.56;2055866;70;20120;-70
2022/04/17 03:12:38;;;;;;;;;;;;;;;5.26;56.91;93492.03;2055720;70;20070;-70
2022/04/17 03:15:04;;;;;;;;;;;;;;;5.27;56.96;93491.50;2055765;69;20088;-70
2022/04/17 03:17:29;;;;;;;;;;;;;;;5.06;56.96;93488.13;2055864;70;20090;-70
2022/04/17 03:19:55;;;;;;;;;;;;;;;4.84;57.82;93495.88;2055875;70;20082;-70
2022/04/17 03:22:21;;;;;;;;;;;;;;;4.82;58.64;93497.75;2055757;69;20050;-69
2022/04/17 03:24:47;;;;;;;;;;;;;;;4.94;58.39;93496.06;2055648;69;20086;-70
2022/04/17 03:27:12;;;;;;;;;;;;;;;4.98;57.70;93499.25;2068830;69;20128;-69
2022/04/17 03:29:38;;;;;;;;;;;;;;;4.97;57.65;93494.97;2055804;70;20597;-70
2022/04/17 03:32:03;;;;;;;;;;;;;;;4.84;59.58;93492.34;2068748;69;20051;-70
2022/04/17 03:34:29;;;;;;;;;;;;;;;5.08;57.48;93479.91;2055734;70;20054;-70
2022/04/17 03:36:57;;;;;;;;;;;;;;;5.04;57.91;93491.47;2055846;70;20113;-70
2022/04/17 03:39:24;;;;;;;;;;;;;;;5.00;58.02;93488.28;2055644;70;20115;-70
2022/04/17 03:41:50;;;;;;;;;;;;;;;5.05;57.72;93497.78;2055750;69;20043;-70
2022/04/17 03:44:15;;;;;;;;;;;;;;;4.97;58.60;93489.41;2055981;69;20058;-70
2022/04/17 03:46:41;;;;;;;;;;;;;;;5.30;56.81;93495.94;2055900;70;20070;-70
2022/04/17 03:49:07;;;;;;;;;;;;;;;5.18;56.97;93491.28;2055732;70;20153;-70
2022/04/17 03:51:33;;;;;;;;;;;;;;;5.27;56.96;93493.53;2055886;70;20051;-71
2022/04/17 03:53:58;;;;;;;;;;;;;;;5.23;56.61;93488.31;2055594;70;20058;-70
2022/04/17 03:56:23;;;;;;;;;;;;;;;5.10;58.34;93499.66;2055806;70;20057;-70
2022/04/17 03:58:49;;;;;;;;;;;;;;;5.14;57.51;93490.91;2055713;70;20482;-70
2022/04/17 04:01:14;;;;;;;;;;;;;;;5.14;58.51;93490.91;2055718;70;20096;-70
2022/04/17 04:03:40;;;;;;;;;;;;;;;5.09;57.96;93487.75;2068828;69;20058;-70
2022/04/17 04:06:05;;;;;;;;;;;;;;;5.00;58.34;93485.50;2055638;70;20126;-69
2022/04/17 04:08:31;;;;;;;;;;;;;;;5.12;57.71;93485.88;2055690;70;20478;-68
2022/04/17 04:10:56;;;;;;;;;;;;;;;5.12;56.44;93480.28;2055766;70;20147;-68
2022/04/17 04:13:21;;;;;;;;;;;;;;;4.95;58.50;93485.66;2055448;70;20065;-68
2022/04/17 04:15:47;;;;;;;;;;;;;;;4.86;58.69;93484.19;2055732;69;20076;-69
2022/04/17 04:18:12;;;;;;;;;;;;;;;5.16;57.86;93491.09;2055658;69;20115;-69
2022/04/17 04:20:38;;;;;;;;;;;;;;;4.98;58.84;93487.34;2055654;70;20050;-69
2022/04/17 04:23:03;;;;;;;;;;;;;;;4.85;58.49;93488.25;2055509;69;20052;-69
2022/04/17 04:25:29;;;;;;;;;;;;;;;4.73;59.65;93484.31;2068627;69;20061;-69
2022/04/17 04:30:38;;;;;;;;;;;;;;;4.95;58.57;93485.66;2055641;70;20058;-70
2022/04/17 04:33:04;;;;;;;;;;;;;;;5.06;58.03;93491.66;2068720;69;20496;-70
2022/04/17 04:35:29;;;;;;;;;;;;;;;5.06;58.33;93485.31;2055649;70;20050;-69
2022/04/17 04:37:56;;;;;;;;;;;;;;;5.13;55.25;93490.16;2055518;70;20046;-69
2022/04/17 04:40:22;;;;;;;;;;;;;;;5.02;58.20;93491.25;2055789;69;20111;-69
2022/04/17 04:42:48;;;;;;;;;;;;;;;5.01;58.29;93489.03;2055585;70;20078;-69
2022/04/17 04:47:58;;;;;;;;;;;;;;;4.92;59.25;93498.69;2055721;70;20139;-69
2022/04/17 04:50:23;;;;;;;;;;;;;;;4.83;60.07;93497.19;2055751;70;20054;-69
2022/04/17 04:52:49;;;;;;;;;;;;;;;5.04;58.76;93494.25;2055488;69;20047;-69
2022/04/17 04:55:14;;;;;;;;;;;;;;;5.20;57.45;93503.38;2055581;70;20509;-69
2022/04/17 04:57:40;;;;;;;;;;;;;;;5.17;57.88;93501.69;2055675;70;20054;-69
2022/04/17 05:00:07;;;;;;;;;;;;;;;5.22;58.67;93500.78;2065775;69;20046;-70
2022/04/17 05:02:37;;;;;;;;;;;;;;;5.03;60.55;93500.38;2055581;70;20149;-70
2022/04/17 05:05:04;;;;;;;;;;;;;;;5.17;59.75;93498.91;2055561;70;20090;-69
2022/04/17 05:07:30;;;;;;;;;;;;;;;5.27;58.77;93502.66;2055555;70;20050;-69
2022/04/17 05:09:55;;;;;;;;;;;;;;;5.31;57.26;93497.44;2068464;69;20065;-69
2022/04/17 05:12:22;;;;;;;;;;;;;;;5.19;57.41;93499.09;2055488;70;20066;-69
2022/04/17 05:14:47;;;;;;;;;;;;;;;5.29;59.10;93502.09;2055462;69;20053;-69
2022/04/17 05:17:13;;;;;;;;;;;;;;;5.31;59.84;93499.47;2055534;70;20050;-69
2022/04/17 05:19:38;;;;;;;;;;;;;;;5.15;61.18;93486.81;2055518;70;20146;-69
2022/04/17 05:22:10;;;;;;;;;;;;;;;5.27;60.06;93497.06;2055467;69;20159;-69
2022/04/17 05:24:36;;;;;;;;;;;;;;;5.34;59.71;93495.56;2068377;69;20490;-70
2022/04/17 05:27:02;;;;;;;;;;;;;;;5.27;60.69;93485.16;2055534;70;20050;-69
2022/04/17 05:29:27;;;;;;;;;;;;;;;5.29;60.33;93485.34;2065676;69;20123;-69
2022/04/17 05:31:52;;;;;;;;;;;;;;;5.41;59.95;93486.47;2068617;69;20046;-69
2022/04/17 05:34:18;;;;;;;;;;;;;;;5.38;60.40;93487.56;2055518;69;20389;-69
2022/04/17 05:36:43;;;;;;;;;;;;;;;5.49;59.06;93492.03;2068522;69;20094;-70
2022/04/17 05:39:09;;;;;;;;;;;;;;;5.70;59.40;93486.25;2055433;70;20054;-71
2022/04/17 05:41:34;;;;;;;;;;;;;;;5.61;60.26;93493.16;2055585;69;20478;-71
2022/04/17 05:44:00;;;;;;;;;;;;;;;5.69;60.39;93498.75;2055580;70;20042;-70
2022/04/17 05:46:35;;;;;;;;;;;;;;;5.86;58.09;93496.09;2055504;70;20047;-70
2022/04/17 05:49:01;;;;;;;;;;;;;;;5.84;58.76;93496.66;2055563;70;20050;-69
2022/04/17 05:51:27;;;;;;;;;;;;;;;5.80;59.95;93495.56;2055467;69;20201;-70
2022/04/17 05:53:52;;;;;;;;;;;;;;;5.91;59.42;93508.38;2055312;70;20201;-69
2022/04/17 05:56:18;;;;;;;;;;;;;;;5.96;58.86;93511.03;2055333;70;20070;-69
2022/04/17 05:58:43;;;;;;;;;;;;;;;5.72;59.15;93509.53;2055354;70;20058;-69
2022/04/17 06:01:09;;;;;;;;;;;;;;;5.71;59.51;93499.66;2055257;70;20058;-70
2022/04/17 06:03:34;;;;;;;;;;;;;;;6.03;55.06;93503.94;2055265;70;20502;-70
2022/04/17 06:05:59;;;;;;;;;;;;;;;5.97;59.22;93495.75;2055396;70;20123;-70
2022/04/17 06:08:25;;;;;;;;;;;;;;;5.81;58.80;93495.00;2055346;70;20057;-69
2022/04/17 06:10:51;;;;;;;;;;;;;;;6.04;57.36;93492.19;2068405;69;20046;-69
2022/04/17 06:13:17;;;;;;;;;;;;;;;5.94;59.41;93484.94;2055324;70;20050;-69
2022/04/17 06:15:43;;;;;;;;;;;;;;;5.36;61.45;93490.19;2055511;70;20057;-69
2022/04/17 06:18:08;;;;;;;;;;;;;;;5.44;61.82;93484.59;2055378;69;20070;-70
2022/04/17 06:20:34;;;;;;;;;;;;;;;5.38;62.53;93472.88;2055503;70;20046;-69
2022/04/17 06:22:59;;;;;;;;;;;;;;;5.56;60.75;93477.34;2055334;70;20043;-69
2022/04/17 06:25:25;;;;;;;;;;;;;;;5.59;61.18;93482.56;2055341;70;20050;-70
2022/04/17 06:27:50;;;;;;;;;;;;;;;5.49;61.56;93475.28;2055427;70;20046;-69
2022/04/17 06:30:17;;;;;;;;;;;;;;;5.78;59.45;93479.38;2068482;69;20050;-70
2022/04/17 06:32:43;;;;;;;;;;;;;;;6.22;59.13;93490.28;2068325;69;20066;-70
2022/04/17 06:35:09;;;;;;;;;;;;;;;5.98;59.24;93483.25;2055314;70;20077;-71
2022/04/17 06:37:53;;;;;;;;;;;;;;;6.02;59.32;93489.22;2055521;70;20061;-73
2022/04/17 06:40:22;;;;;;;;;;;;;;;6.34;56.91;93477.38;2068872;69;20084;-70
2022/04/17 06:42:48;;;;;;;;;;;;;;;6.41;56.93;93472.31;2055832;70;20563;-70
2022/04/17 06:45:15;;;;;;;;;;;;;;;6.70;54.70;93469.97;2055882;70;20043;-69
2022/04/17 06:47:41;;;;;;;;;;;;;;;7.01;56.08;93470.50;2055892;69;20047;-70
2022/04/17 06:50:07;;;;;;;;;;;;;;;7.23;57.90;93452.09;2066143;69;20054;-69
2022/04/17 06:52:32;;;;;;;;;;;;;;;7.72;56.11;93456.19;2055851;69;20055;-69
2022/04/17 06:54:58;;;;;;;;;;;;;;;7.96;53.61;93449.75;2066027;69;20113;-69
2022/04/17 06:57:30;;;;;;;;;;;;;;;8.27;54.46;93444.56;2055860;70;20051;-69
2022/04/17 06:59:56;;;;;;;;;;;;;;;8.71;51.40;93435.47;2068849;69;20100;-69
2022/04/17 07:02:21;;;;;;;;;;;;;;;8.72;52.73;93439.75;2055768;69;20483;-69
2022/04/17 07:04:47;;;;;;;;;;;;;;;9.08;52.30;93436.28;2055942;70;20413;-69
2022/04/17 07:07:12;;;;;;;;;;;;;;;9.02;51.71;93440.66;2055834;70;20186;-68
2022/04/17 07:09:38;;;;;;;;;;;;;;;8.50;52.62;93437.97;2068764;69;20073;-70
2022/04/17 07:12:03;;;;;;;;;;;;;;;9.57;51.50;93444.88;2055855;70;20089;-69
2022/04/17 07:14:29;;;;;;;;;;;;;;;9.21;49.32;93434.38;2055900;69;20077;-69
2022/04/17 07:16:54;;;;;;;;;;;;;;;9.79;48.85;93435.31;2068745;69;20115;-69
2022/04/17 07:19:20;;;;;;;;;;;;;;;9.74;49.37;93432.81;2068819;69;20054;-69
2022/04/17 07:21:46;;;;;;;;;;;;;;;10.28;48.50;93429.81;2068785;69;20054;-69
2022/04/17 07:24:11;;;;;;;;;;;;;;;9.67;48.35;93431.63;2055626;70;20168;-69
2022/04/17 07:26:37;;;;;;;;;;;;;;;9.91;48.41;93422.19;2055759;70;20096;-69
2022/04/17 07:29:03;;;;;;;;;;;;;;;10.31;47.93;93422.97;2055758;70;20053;-70
2022/04/17 07:31:29;;;;;;;;;;;;;;;10.85;49.00;93420.56;2068710;69;20066;-70
2022/04/17 07:33:54;;;;;;;;;;;;;;;10.63;47.53;93414.09;2055680;70;20474;-70
2022/04/17 07:36:20;;;;;;;;;;;;;;;10.17;46.77;93409.34;2055746;70;20046;-70
2022/04/17 07:38:46;;;;;;;;;;;;;;;10.60;45.76;93414.53;2055588;70;20058;-71
2022/04/17 07:41:11;;;;;;;;;;;;;;;11.05;44.44;93403.63;2055828;70;20137;-72
2022/04/17 07:43:37;;;;;;;;;;;;;;;10.05;44.54;93402.81;2068884;69;20138;-72
2022/04/17 07:46:02;;;;;;;;;;;;;;;10.27;43.99;93403.72;2055828;70;20395;-72
2022/04/17 07:48:28;;;;;;;;;;;;;;;11.63;42.25;93397.72;2055944;70;20066;-71
2022/04/17 07:50:54;;;;;;;;;;;;;;;10.63;42.50;93400.00;2055699;70;20149;-72
2022/04/17 07:53:20;;;;;;;;;;;;;;;11.34;42.14;93395.06;2055450;69;20050;-71
2022/04/17 07:55:45;;;;;;;;;;;;;;;10.35;41.60;93398.69;2055919;70;20061;-70
2022/04/17 07:58:22;;;;;;;;;;;;;;;11.30;41.66;93380.69;2055742;70;20140;-71
2022/04/17 08:00:57;;;;;;;;;;;;;;;11.41;39.27;93375.16;2055677;70;20052;-71
2022/04/17 08:05:57;;;;;;;;;;;;;;;12.33;38.27;93377.69;2055614;70;20046;-72
2022/04/17 08:08:23;;;;;;;;;;;;;;;13.01;38.19;93379.84;2055437;70;20115;-71
2022/04/17 08:10:48;;;;;;;;;;;;;;;13.33;37.92;93379.09;2055629;70;20109;-71
2022/04/17 08:13:14;;;;;;;;;;;;;;;13.30;38.73;93371.09;2055477;70;20078;-71
2022/04/17 08:15:40;;;;;;;;;;;;;;;13.90;36.43;93376.84;2055655;70;20046;-71
2022/04/17 08:18:05;;;;;;;;;;;;;;;14.03;35.64;93375.47;2055879;70;20057;-72
2022/04/17 08:20:31;;;;;;;;;;;;;;;14.37;37.31;93371.06;2068615;69;20046;-72
2022/04/17 08:22:56;;;;;;;;;;;;;;;13.98;36.27;93368.84;2055522;70;20405;-72
2022/04/17 08:25:22;;;;;;;;;;;;;;;14.91;35.51;93364.22;2068673;69;20062;-71
2022/04/17 08:27:48;;;;;;;;;;;;;;;14.27;34.18;93367.66;2055756;70;20055;-71
2022/04/17 08:30:18;;;;;;;;;;;;;;;14.17;35.29;93364.97;2055653;70;20055;-71
2022/04/17 08:32:43;;;;;;;;;;;;;;;15.02;34.17;93359.81;2068673;69;20145;-72
2022/04/17 08:35:09;;;;;;;;;;;;;;;13.72;33.72;93355.94;2068584;69;20157;-71
2022/04/17 08:37:34;;;;;;;;;;;;;;;14.26;34.93;93357.69;2055570;70;20050;-71
2022/04/17 08:40:00;;;;;;;;;;;;;;;15.09;33.96;93347.47;2068643;69;20090;-71
2022/04/17 08:42:26;;;;;;;;;;;;;;;16.52;33.03;93343.47;2055619;70;20421;-72
2022/04/17 08:44:52;;;;;;;;;;;;;;;16.92;31.70;93338.31;2055587;70;20053;-70
2022/04/17 08:47:18;;;;;;;;;;;;;;;17.17;30.83;93340.91;2055606;70;20050;-70
2022/04/17 08:49:44;;;;;;;;;;;;;;;16.84;31.29;93332.22;2055583;70;20058;-73
2022/04/17 08:52:15;;;;;;;;;;;;;;;14.95;34.52;93332.53;2055614;69;20046;-71
2022/04/17 08:54:41;;;;;;;;;;;;;;;15.83;33.19;93343.56;2055454;70;20066;-71
2022/04/17 08:57:07;;;;;;;;;;;;;;;15.62;32.03;93333.25;2068550;69;20046;-74
2022/04/17 08:59:33;;;;;;;;;;;;;;;16.69;32.06;93322.25;2055412;70;20486;-69
2022/04/17 09:02:06;;;;;;;;;;;;;;;17.26;29.95;93322.84;2055651;70;20414;-70
2022/04/17 09:04:32;;;;;;;;;;;;;;;17.35;31.44;93308.97;2055595;70;20061;-73
2022/04/17 09:06:57;;;;;;;;;;;;;;;17.77;29.06;93313.00;2055521;70;20050;-70
2022/04/17 09:09:22;;;;;;;;;;;;;;;16.31;31.30;93298.38;2068272;69;20046;-72
2022/04/17 09:11:53;;;;;;;;;;;;;;;17.86;28.55;93297.75;2068460;69;20520;-72
2022/04/17 09:14:19;;;;;;;;;;;;;;;16.99;29.06;93298.13;2055614;70;20074;-72
2022/04/17 09:16:49;;;;;;;;;;;;;;;17.18;27.85;93288.34;2055528;70;20097;-69
2022/04/17 09:19:16;;;;;;;;;;;;;;;16.73;28.98;93282.69;2055487;70;20050;-69
2022/04/17 09:21:41;;;;;;;;;;;;;;;17.04;28.02;93279.13;2055592;70;20422;-70
2022/04/17 09:24:14;;;;;;;;;;;;;;;18.37;27.93;93279.22;2055438;70;20049;-72
2022/04/17 09:26:46;;;;;;;;;;;;;;;18.42;26.79;93278.75;2068566;69;20082;-70
2022/04/17 09:29:19;;;;;;;;;;;;;;;18.23;27.67;93263.00;2055451;70;20053;-73
2022/04/17 09:31:45;;;;;;;;;;;;;;;18.73;26.36;93274.28;2055468;69;20109;-74
2022/04/17 09:34:10;;;;;;;;;;;;;;;18.68;27.35;93264.06;2055463;69;20518;-74
2022/04/17 09:36:37;;;;;;;;;;;;;;;19.65;25.46;93261.38;2055734;70;20150;-72
2022/04/17 09:39:15;;;;;;;;;;;;;;;18.51;26.69;93252.03;2056443;70;20506;-69
2022/04/17 09:41:59;;;;;;;;;;;;;;;18.96;26.92;93247.34;2055458;70;20139;-71
2022/04/17 09:44:47;;;;;;;;;;;;;;;19.86;26.31;93242.84;2068520;69;20048;-72
2022/04/17 09:47:17;;;;;;;;;;;;;;;18.09;27.66;93233.91;2055541;70;20054;-73
2022/04/17 09:49:57;;;;;;;;;;;;;;;19.78;25.66;93231.84;2068443;69;20054;-71
2022/04/17 09:52:27;;;;;;;;;;;;;;;17.49;28.60;93224.22;2055459;70;20058;-72
2022/04/17 09:54:53;;;;;;;;;;;;;;;19.73;27.52;93215.97;2055278;70;20134;-71
2022/04/17 09:57:31;;;;;;;;;;;;;;;20.31;26.92;93215.78;2055431;70;20070;-71
2022/04/17 09:59:57;;;;;;;;;;;;;;;19.49;26.81;93209.38;2055598;70;20131;-72
2022/04/17 10:02:24;;;;;;;;;;;;;;;20.88;25.97;93200.41;2055412;70;20051;-73
2022/04/17 10:04:49;;;;;;;;;;;;;;;21.21;25.72;93195.66;2055388;70;20074;-71
2022/04/17 10:07:18;;;;;;;;;;;;;;;21.63;26.36;93189.72;2055405;70;20050;-72
2022/04/17 10:09:45;;;;;;;;;;;;;;;21.71;24.12;93187.06;2055273;70;20046;-71
2022/04/17 10:12:14;;;;;;;;;;;;;;;19.90;25.96;93185.09;2055620;69;20122;-72
2022/04/17 10:14:40;;;;;;;;;;;;;;;21.52;23.75;93177.25;2055906;70;20593;-71
2022/04/17 10:17:06;;;;;;;;;;;;;;;21.99;24.30;93176.38;2055907;69;20482;-72
2022/04/17 10:19:33;;;;;;;;;;;;;;;22.26;23.04;93165.56;2055916;70;20046;-73
2022/04/17 10:22:01;;;;;;;;;;;;;;;22.57;22.75;93150.56;2055804;69;20219;-74
2022/04/17 10:24:26;;;;;;;;;;;;;;;22.71;23.96;93158.03;2055680;70;20488;-72
2022/04/17 10:26:53;;;;;;;;;;;;;;;22.70;23.43;93145.81;2055885;70;20509;-72
2022/04/17 10:29:31;;;;;;;;;;;;;;;21.23;22.42;93136.34;2055983;69;20070;-73
2022/04/17 10:32:24;;;;;;;;;;;;;;;22.17;22.02;93132.38;2055877;70;20047;-72
2022/04/17 10:35:02;;;;;;;;;;;;;;;22.32;21.77;93137.78;2055849;70;20070;-72
2022/04/17 10:37:40;;;;;;;;;;;;;;;21.38;21.79;93126.03;2055869;70;20478;-72
2022/04/17 10:40:10;;;;;;;;;;;;;;;22.28;22.71;93114.75;2055997;70;20097;-72
2022/04/17 10:42:36;;;;;;;;;;;;;;;22.23;21.74;93103.88;2055783;69;20062;-73
2022/04/17 10:45:02;;;;;;;;;;;;;;;21.75;21.89;93112.66;2056081;69;20053;-70
2022/04/17 10:47:29;;;;;;;;;;;;;;;24.09;20.06;93111.97;2068947;69;20065;-70
2022/04/17 10:49:56;;;;;;;;;;;;;;;25.04;19.67;93102.63;2055834;70;20058;-68
2022/04/17 10:52:32;;;;;;;;;;;;;;;26.14;19.17;93103.91;2055857;70;20050;-69
2022/04/17 10:55:08;;;;;;;;;;;;;;;26.91;18.61;93100.16;2055765;69;20082;-70
2022/04/17 10:58:03;;;;;;;;;;;;;;;28.41;17.77;93093.44;2055895;70;20053;-70
2022/04/17 11:00:31;;;;;;;;;;;;;;;28.95;15.84;93086.91;2056236;69;20185;-73
2022/04/17 11:02:58;;;;;;;;;;;;;;;28.00;16.92;93085.44;2055815;70;20390;-70
2022/04/17 11:06:08;;;;;;;;;;;;;;;29.62;15.33;93071.50;2055783;69;20123;-74
2022/04/17 11:08:21;;;;;;;;;;;;;;;28.36;14.83;93066.66;2055685;70;20193;-71
2022/04/17 11:10:52;;;;;;;;;;;;;;;32.46;12.79;93066.47;2055811;70;20430;-71
2022/04/17 11:13:17;;;;;;;;;;;;;;;34.95;12.24;93070.16;2055809;69;20058;-72
2022/04/17 11:15:48;;;;;;;;;;;;;;;35.71;11.69;93057.19;2055948;70;20053;-72
2022/04/17 11:18:16;;;;;;;;;;;;;;;37.61;11.17;93059.94;2055792;70;20144;-70
2022/04/17 11:20:46;;;;;;;;;;;;;;;33.37;11.50;93052.50;2056004;70;20478;-73
2022/04/17 11:23:12;;;;;;;;;;;;;;;36.73;9.90;93042.38;2055562;69;20141;-73
2022/04/17 11:25:49;;;;;;;;;;;;;;;37.35;10.30;93035.88;2055795;70;20235;-72
2022/04/17 11:28:33;;;;;;;;;;;;;;;39.59;8.98;93043.97;2055791;70;20073;-74
2022/04/17 11:30:58;;;;;;;;;;;;;;;40.78;8.99;93027.44;2068738;69;20131;-72
2022/04/17 11:33:25;;;;;;;;;;;;;;;37.78;8.86;93022.56;2055699;70;20456;-72
2022/04/17 11:35:51;;;;;;;;;;;;;;;39.29;9.20;93018.81;2054085;70;20145;-73
2022/04/17 11:38:17;;;;;;;;;;;;;;;38.03;9.69;93009.91;2067878;69;20093;-71
2022/04/17 11:40:44;;;;;;;;;;;;;;;38.58;7.93;93002.59;2067510;69;20065;-73
2022/04/17 11:43:11;;;;;;;;;;;;;;;37.99;9.75;93004.22;2055103;70;20090;-71
2022/04/17 11:45:37;;;;;;;;;;;;;;;39.49;8.87;92993.63;2068770;69;20651;-71
2022/04/17 11:48:03;;;;;;;;;;;;;;;37.10;9.50;92991.97;2055633;69;20082;-69
2022/04/17 11:50:29;;;;;;;;;;;;;;;36.49;8.93;92976.47;2055085;70;20520;-70
2022/04/17 11:52:59;;;;;;;;;;;;;;;39.21;8.60;92981.59;2055312;70;20153;-71
2022/04/17 11:55:25;;;;;;;;;;;;;;;35.43;8.69;92970.88;2055612;69;20132;-71
2022/04/17 11:57:51;;;;;;;;;;;;;;;36.11;8.08;92972.56;2055580;69;20116;-72
2022/04/17 12:00:16;;;;;;;;;;;;;;;35.31;8.80;92959.53;2055532;70;20485;-70
2022/04/17 12:02:42;;;;;;;;;;;;;;;32.08;10.00;92951.31;2055643;70;20042;-72
2022/04/17 12:05:09;;;;;;;;;;;;;;;32.34;9.54;92936.28;2055622;70;20062;-69
2022/04/17 12:07:35;;;;;;;;;;;;;;;32.17;10.03;92935.13;2055620;69;20050;-73
2022/04/17 12:10:04;;;;;;;;;;;;;;;34.54;9.13;92938.94;2055574;69;20562;-73
2022/04/17 12:12:33;;;;;;;;;;;;;;;33.80;9.04;92939.97;2055528;70;20127;-70
2022/04/17 12:15:00;;;;;;;;;;;;;;;33.82;8.62;92946.50;2055393;70;20081;-70
2022/04/17 12:17:25;;;;;;;;;;;;;;;29.61;10.69;92919.94;2055762;70;20085;-69
2022/04/17 12:19:51;;;;;;;;;;;;;;;27.85;10.40;92924.88;2068618;69;20561;-70
2022/04/17 12:22:19;;;;;;;;;;;;;;;30.21;10.42;92928.19;2053956;70;20135;-69
2022/04/17 12:24:45;;;;;;;;;;;;;;;34.03;8.80;92932.13;2055408;70;20485;-69
2022/04/17 12:27:14;;;;;;;;;;;;;;;29.32;9.20;92924.44;2055644;69;20038;-72
2022/04/17 12:29:41;;;;;;;;;;;;;;;30.12;9.01;92913.00;2055555;69;20085;-71
2022/04/17 12:32:15;;;;;;;;;;;;;;;31.44;9.32;92921.69;2055488;70;20038;-69
2022/04/17 12:34:45;;;;;;;;;;;;;;;33.43;8.77;92910.88;2055271;70;20160;-70
2022/04/17 12:37:19;;;;;;;;;;;;;;;30.45;8.83;92895.25;2055475;70;20047;-72
2022/04/17 12:39:44;;;;;;;;;;;;;;;32.99;8.90;92902.34;2055147;70;20170;-72
2022/04/17 12:42:17;;;;;;;;;;;;;;;29.61;8.60;92904.72;2055399;70;20058;-73
2022/04/17 12:44:42;;;;;;;;;;;;;;;32.87;8.57;92903.25;2055027;70;20050;-74
2022/04/17 12:47:12;;;;;;;;;;;;;;;29.79;8.62;92889.34;2054921;70;20797;-73
2022/04/17 12:49:38;;;;;;;;;;;;;;;32.73;8.24;92897.00;2055107;70;20127;-70
2022/04/17 12:52:04;;;;;;;;;;;;;;;32.09;8.98;92892.31;2055041;70;20497;-74
2022/04/17 12:54:33;;;;;;;;;;;;;;;33.35;8.32;92888.41;2055476;70;20119;-71
2022/04/17 12:57:02;;;;;;;;;;;;;;;35.71;7.78;92886.66;2054778;69;20306;-73
2022/04/17 12:59:38;;;;;;;;;;;;;;;30.30;9.65;92880.91;2055448;69;20091;-71
2022/04/17 13:02:10;;;;;;;;;;;;;;;32.91;8.42;92881.38;2055081;70;20073;-71
2022/04/17 13:04:40;;;;;;;;;;;;;;;32.25;8.84;92876.00;2055243;70;20520;-73
2022/04/17 13:07:09;;;;;;;;;;;;;;;33.36;9.24;92881.84;2068387;69;20046;-71
2022/04/17 13:09:34;;;;;;;;;;;;;;;34.15;8.96;92872.72;2054303;69;20065;-71